KGVL/GVL METAR and TAF weather

Enter ICAO airport designator
Station Type Date Time Source
KGVL METAR 2019/10/14 05:53 UTC NOAA

KGVL 140553Z AUTO 26007KT 10SM CLR 14/13 A3007 RMK AO2 SLP175 60000 T01390133 10156 20139 55007


Station Type Date Time Source
KGVL Decoded METAR 2019/10/14 05:53 UTC NOAA

GILMER MEMORIAL AIRPORT, GA, United States (KGVL) 34-16N 83-50W 386M
Oct 14, 2019 - 01:53 AM EDT / 2019.10.14 0553 UTC
Wind: from the W (260 degrees) at 8 MPH (7 KT):0
Visibility: 10 mile(s):0
Sky conditions: clear
Temperature: 57.0 F (13.9 C)
Dew Point: 55.9 F (13.3 C)
Relative Humidity: 96%
Pressure (altimeter): 30.07 in. Hg (1018 hPa)
Pressure tendency: 0.02 inches (0.7 hPa) lower than three hours ago
ob: KGVL 140553Z AUTO 26007KT 10SM CLR 14/13 A3007 RMK AO2 SLP175 60000 T01390133 10156 20139 55007
cycle: 6

Station Type Date Time Source
KGVL TAF UTC NOAA

Error!

Example: see airport list